Time;durP1;ratioP1;P1;durP2;ratioP2;P2;SDS_P1;SDS_P2;PMS_P1;PMS_P2;Temp;Humidity;BMP_temperature;BMP_pressure;BME280_temperature;BME280_humidity;BME280_pressure;Samples;Min_cycle;Max_cycle;Signal;HPM_P1;HPM_P2
2022/06/24 00:02:10;;;;;;;37.85;28.80;;;;;;;;;;4901093;29;20041;-81
2022/06/24 00:04:57;;;;;;;35.53;28.75;;;;;;;;;;4895252;29;20060;-80
2022/06/24 00:07:50;;;;;;;38.20;29.42;;;;;;;;;;4914077;29;20040;-80
2022/06/24 00:10:36;;;;;;;43.10;29.30;;;;;;;;;;4903794;29;20049;-80
2022/06/24 00:13:22;;;;;;;40.40;29.02;;;;;;;;;;4908287;29;20048;-81
2022/06/24 00:16:08;;;;;;;33.22;27.33;;;;;;;;;;4911796;29;20056;-81
2022/06/24 00:19:10;;;;;;;39.40;30.23;;;;;;;;;;4900762;29;20045;-81
2022/06/24 00:22:08;;;;;;;35.22;28.33;;;;;;;;;;4902031;29;20478;-81
2022/06/24 00:25:11;;;;;;;33.92;26.85;;;;;;;;;;4906904;29;20048;-81
2022/06/24 00:28:04;;;;;;;37.03;26.85;;;;;;;;;;4900238;29;20052;-81
2022/06/24 00:30:51;;;;;;;32.08;27.27;;;;;;;;;;4900079;29;20037;-81
2022/06/24 00:33:37;;;;;;;36.03;27.52;;;;;;;;;;4900440;29;20057;-81
2022/06/24 00:36:23;;;;;;;33.33;28.38;;;;;;;;;;4901490;29;20048;-81
2022/06/24 00:39:08;;;;;;;38.05;28.65;;;;;;;;;;4907473;29;20498;-82
2022/06/24 00:41:54;;;;;;;35.72;28.90;;;;;;;;;;4900582;29;20396;-77
2022/06/24 00:45:11;;;;;;;38.55;30.05;;;;;;;;;;4899745;29;20044;-77
2022/06/24 00:47:57;;;;;;;36.83;29.75;;;;;;;;;;4906287;29;20041;-77
2022/06/24 00:50:46;;;;;;;37.67;28.88;;;;;;;;;;4891837;29;20394;-77
2022/06/24 00:53:39;;;;;;;35.03;28.73;;;;;;;;;;4899680;29;20040;-78
2022/06/24 00:56:26;;;;;;;38.00;30.02;;;;;;;;;;4905675;29;20370;-78
2022/06/24 00:59:11;;;;;;;34.83;27.67;;;;;;;;;;4899526;29;20040;-78
2022/06/24 01:01:58;;;;;;;34.85;28.80;;;;;;;;;;4899147;29;20056;-78
2022/06/24 01:04:43;;;;;;;36.88;28.23;;;;;;;;;;4900719;29;20402;-78
2022/06/24 01:07:28;;;;;;;35.67;28.52;;;;;;;;;;4900626;29;20478;-78
2022/06/24 01:10:13;;;;;;;33.13;28.02;;;;;;;;;;4908356;29;20044;-78
2022/06/24 01:12:59;;;;;;;33.58;27.77;;;;;;;;;;4903961;29;20048;-78
2022/06/24 01:15:45;;;;;;;33.67;27.33;;;;;;;;;;4902175;29;20290;-78
2022/06/24 01:18:30;;;;;;;34.85;27.80;;;;;;;;;;4899732;29;20049;-78
2022/06/24 01:21:37;;;;;;;32.92;27.90;;;;;;;;;;4900150;29;20049;-78
2022/06/24 01:24:24;;;;;;;34.90;27.42;;;;;;;;;;4903402;29;20433;-79
2022/06/24 01:27:09;;;;;;;31.30;27.48;;;;;;;;;;4903362;29;20049;-78
2022/06/24 01:29:55;;;;;;;33.80;27.55;;;;;;;;;;4901214;29;20061;-78
2022/06/24 01:32:40;;;;;;;33.83;28.65;;;;;;;;;;4902924;29;20048;-78
2022/06/24 01:35:26;;;;;;;34.70;28.80;;;;;;;;;;4903800;29;20052;-78
2022/06/24 01:38:11;;;;;;;36.75;28.75;;;;;;;;;;4900672;29;20505;-78
2022/06/24 01:40:57;;;;;;;36.78;28.33;;;;;;;;;;4900054;29;20044;-78
2022/06/24 01:43:43;;;;;;;34.45;29.48;;;;;;;;;;4900013;29;20491;-78
2022/06/24 01:46:29;;;;;;;36.42;29.63;;;;;;;;;;4907938;29;20048;-79
2022/06/24 01:49:15;;;;;;;38.53;29.45;;;;;;;;;;4900630;29;20048;-78
2022/06/24 01:52:01;;;;;;;39.72;30.75;;;;;;;;;;4898747;29;20049;-78
2022/06/24 01:54:46;;;;;;;32.72;28.58;;;;;;;;;;4905333;29;20052;-78
2022/06/24 01:57:32;;;;;;;35.70;28.52;;;;;;;;;;4899268;29;20395;-78
2022/06/24 02:00:17;;;;;;;33.75;27.98;;;;;;;;;;4899054;29;20491;-78
2022/06/24 02:03:05;;;;;;;37.55;28.27;;;;;;;;;;4898602;29;20041;-78
2022/06/24 02:05:51;;;;;;;34.05;29.35;;;;;;;;;;4898735;29;20048;-79
2022/06/24 02:08:37;;;;;;;34.35;28.55;;;;;;;;;;4899656;29;20048;-78
2022/06/24 02:14:26;;;;;;;37.25;29.27;;;;;;;;;;4899163;29;20494;-78
2022/06/24 02:17:12;;;;;;;38.38;28.80;;;;;;;;;;4899827;29;20040;-78
2022/06/24 02:19:58;;;;;;;36.72;29.83;;;;;;;;;;4898957;29;20052;-79
2022/06/24 02:22:43;;;;;;;39.00;29.58;;;;;;;;;;4900960;29;20048;-78
2022/06/24 02:25:28;;;;;;;35.90;29.02;;;;;;;;;;4904013;29;20398;-78
2022/06/24 02:28:14;;;;;;;32.25;28.42;;;;;;;;;;4903707;29;20041;-78
2022/06/24 02:31:00;;;;;;;36.40;29.67;;;;;;;;;;4903022;29;20482;-78
2022/06/24 02:33:49;;;;;;;30.20;26.90;;;;;;;;;;4902677;29;20422;-78
2022/06/24 02:36:35;;;;;;;40.17;29.20;;;;;;;;;;4902399;29;20052;-78
2022/06/24 02:39:20;;;;;;;33.75;29.10;;;;;;;;;;4902534;29;20041;-78
2022/06/24 02:42:06;;;;;;;40.22;31.38;;;;;;;;;;4903758;29;20052;-78
2022/06/24 02:44:52;;;;;;;34.78;30.08;;;;;;;;;;4903275;29;20037;-78
2022/06/24 02:47:37;;;;;;;35.40;29.25;;;;;;;;;;4903008;29;20052;-78
2022/06/24 02:50:22;;;;;;;40.08;29.77;;;;;;;;;;4901953;29;20044;-78
2022/06/24 02:53:07;;;;;;;36.15;28.77;;;;;;;;;;4902195;29;20049;-77
2022/06/24 02:55:56;;;;;;;34.13;28.52;;;;;;;;;;4901816;29;20049;-78
2022/06/24 02:58:42;;;;;;;33.50;28.48;;;;;;;;;;4904260;29;20044;-78
2022/06/24 03:01:27;;;;;;;34.75;28.15;;;;;;;;;;4904101;29;20048;-79
2022/06/24 03:04:12;;;;;;;34.58;29.27;;;;;;;;;;4903682;29;20052;-78
2022/06/24 03:06:58;;;;;;;33.03;27.58;;;;;;;;;;4904544;29;20048;-80
2022/06/24 03:09:44;;;;;;;35.67;28.27;;;;;;;;;;4902767;29;20487;-79
2022/06/24 03:12:29;;;;;;;33.15;27.45;;;;;;;;;;4901244;29;20049;-78
2022/06/24 03:15:15;;;;;;;34.95;28.75;;;;;;;;;;4901501;29;20040;-79
2022/06/24 03:18:01;;;;;;;33.88;28.27;;;;;;;;;;4901208;29;20048;-79
2022/06/24 03:20:47;;;;;;;30.75;27.25;;;;;;;;;;4901411;29;20048;-78
2022/06/24 03:23:32;;;;;;;33.70;26.90;;;;;;;;;;4901524;29;20044;-80
2022/06/24 03:26:17;;;;;;;31.35;25.50;;;;;;;;;;4901016;29;20398;-80
2022/06/24 03:29:03;;;;;;;31.85;25.25;;;;;;;;;;4901180;29;20048;-80
2022/06/24 03:31:48;;;;;;;29.45;23.95;;;;;;;;;;4902002;29;20045;-79
2022/06/24 03:34:34;;;;;;;33.10;24.80;;;;;;;;;;4907768;29;20049;-80
2022/06/24 03:37:19;;;;;;;31.55;26.88;;;;;;;;;;4902885;29;20056;-79
2022/06/24 03:40:06;;;;;;;29.70;25.67;;;;;;;;;;4901693;29;20037;-80
2022/06/24 03:42:51;;;;;;;31.15;25.85;;;;;;;;;;4901082;29;20052;-79
2022/06/24 03:45:36;;;;;;;30.83;25.27;;;;;;;;;;4901562;29;20049;-79
2022/06/24 03:48:22;;;;;;;31.98;25.63;;;;;;;;;;4907531;29;20040;-79
2022/06/24 03:51:07;;;;;;;30.15;24.75;;;;;;;;;;4901649;29;20056;-79
2022/06/24 03:53:52;;;;;;;30.70;25.13;;;;;;;;;;4902799;29;20394;-79
2022/06/24 03:56:38;;;;;;;29.02;25.58;;;;;;;;;;4901694;29;20052;-78
2022/06/24 03:59:23;;;;;;;29.15;25.05;;;;;;;;;;4901833;29;20049;-79
2022/06/24 04:02:09;;;;;;;35.00;25.05;;;;;;;;;;4902503;29;20497;-79
2022/06/24 04:04:54;;;;;;;30.98;24.98;;;;;;;;;;4902827;29;20483;-79
2022/06/24 04:07:40;;;;;;;36.22;25.02;;;;;;;;;;4901591;29;20052;-79
2022/06/24 04:10:28;;;;;;;29.98;25.02;;;;;;;;;;4900689;29;20048;-79
2022/06/24 04:13:13;;;;;;;31.50;25.17;;;;;;;;;;4903318;29;20040;-79
2022/06/24 04:15:58;;;;;;;30.88;25.30;;;;;;;;;;4900419;29;20057;-79
2022/06/24 04:18:43;;;;;;;29.38;24.58;;;;;;;;;;4900590;29;20044;-79
2022/06/24 04:21:31;;;;;;;28.52;24.45;;;;;;;;;;4893476;29;20045;-79
2022/06/24 04:24:16;;;;;;;31.35;24.75;;;;;;;;;;4903581;29;20418;-79
2022/06/24 04:27:02;;;;;;;27.20;24.20;;;;;;;;;;4903170;29;20482;-78
2022/06/24 04:29:48;;;;;;;27.63;24.45;;;;;;;;;;4902854;29;20048;-80
2022/06/24 04:32:33;;;;;;;27.42;22.77;;;;;;;;;;4904867;29;20044;-78
2022/06/24 04:35:19;;;;;;;30.98;23.95;;;;;;;;;;4901060;29;20490;-79
2022/06/24 04:38:04;;;;;;;31.25;24.58;;;;;;;;;;4905450;29;20045;-79
2022/06/24 04:40:50;;;;;;;32.72;24.15;;;;;;;;;;4904870;29;20395;-79
2022/06/24 04:43:35;;;;;;;32.53;23.73;;;;;;;;;;4903209;29;20053;-79
2022/06/24 04:46:21;;;;;;;30.23;23.33;;;;;;;;;;4901027;29;20045;-80
2022/06/24 04:49:07;;;;;;;31.05;22.42;;;;;;;;;;4900328;29;20052;-82
2022/06/24 04:51:52;;;;;;;28.20;23.33;;;;;;;;;;4900386;29;20487;-78
2022/06/24 04:54:38;;;;;;;29.90;23.27;;;;;;;;;;4901165;29;20041;-79
2022/06/24 04:57:23;;;;;;;29.33;23.85;;;;;;;;;;4901830;29;20044;-79
2022/06/24 05:00:10;;;;;;;31.60;23.23;;;;;;;;;;4901003;29;20048;-78
2022/06/24 05:02:56;;;;;;;29.25;22.63;;;;;;;;;;4899335;29;20048;-79
2022/06/24 05:05:41;;;;;;;26.63;21.52;;;;;;;;;;4900324;29;20044;-78
2022/06/24 05:08:27;;;;;;;28.00;21.25;;;;;;;;;;4900634;29;20049;-79
2022/06/24 05:11:13;;;;;;;25.90;22.15;;;;;;;;;;4902314;29;20044;-80
2022/06/24 05:13:58;;;;;;;32.22;23.15;;;;;;;;;;4898125;29;20033;-79
2022/06/24 05:16:44;;;;;;;30.83;22.48;;;;;;;;;;4899168;29;20486;-79
2022/06/24 05:19:29;;;;;;;28.25;22.98;;;;;;;;;;4898778;29;20048;-78
2022/06/24 05:22:15;;;;;;;26.00;21.27;;;;;;;;;;4899200;29;20049;-79
2022/06/24 05:25:01;;;;;;;25.20;21.55;;;;;;;;;;4899391;29;20045;-80
2022/06/24 05:27:47;;;;;;;27.02;21.15;;;;;;;;;;4898802;29;20056;-80
2022/06/24 05:30:32;;;;;;;26.83;21.90;;;;;;;;;;4898775;29;20048;-78
2022/06/24 05:33:17;;;;;;;28.80;20.77;;;;;;;;;;4898706;29;20045;-78
2022/06/24 05:36:03;;;;;;;24.95;20.05;;;;;;;;;;4898954;29;20036;-79
2022/06/24 05:38:48;;;;;;;25.17;19.88;;;;;;;;;;4898956;29;20056;-79
2022/06/24 05:41:37;;;;;;;28.60;18.73;;;;;;;;;;4898664;29;20044;-78
2022/06/24 05:44:23;;;;;;;24.92;19.33;;;;;;;;;;4898679;29;20044;-78
2022/06/24 05:47:08;;;;;;;23.00;19.35;;;;;;;;;;4898880;29;20052;-79
2022/06/24 05:49:53;;;;;;;24.10;19.92;;;;;;;;;;4899152;29;20056;-78
2022/06/24 05:55:43;;;;;;;23.75;18.15;;;;;;;;;;4899273;29;20396;-78
2022/06/24 05:58:29;;;;;;;27.95;17.70;;;;;;;;;;4898289;29;20401;-79
2022/06/24 06:01:15;;;;;;;22.65;17.83;;;;;;;;;;4899426;29;20056;-79
2022/06/24 06:04:00;;;;;;;24.17;18.73;;;;;;;;;;4898797;29;20048;-78
2022/06/24 06:06:47;;;;;;;22.60;18.13;;;;;;;;;;4898782;29;20056;-79
2022/06/24 06:09:33;;;;;;;28.05;17.80;;;;;;;;;;4905101;29;20048;-79
2022/06/24 06:12:18;;;;;;;27.02;18.10;;;;;;;;;;4898839;29;20048;-79
2022/06/24 06:15:04;;;;;;;27.63;17.90;;;;;;;;;;4898816;29;20052;-78
2022/06/24 06:17:50;;;;;;;26.20;19.27;;;;;;;;;;4898976;29;20056;-79
2022/06/24 06:20:37;;;;;;;28.02;18.65;;;;;;;;;;4899047;29;20402;-78
2022/06/24 06:23:23;;;;;;;28.23;19.60;;;;;;;;;;4898283;29;20044;-79
2022/06/24 06:26:09;;;;;;;26.00;17.25;;;;;;;;;;4898746;29;20041;-79
2022/06/24 06:28:55;;;;;;;22.05;17.10;;;;;;;;;;4898038;29;20052;-80
2022/06/24 06:31:40;;;;;;;24.92;16.90;;;;;;;;;;4897991;29;20049;-79
2022/06/24 06:34:26;;;;;;;27.63;18.75;;;;;;;;;;4898377;29;20053;-78
2022/06/24 06:37:11;;;;;;;25.70;16.52;;;;;;;;;;4897909;29;20044;-79
2022/06/24 06:39:56;;;;;;;20.08;16.20;;;;;;;;;;4898434;29;20052;-79
2022/06/24 06:42:42;;;;;;;19.20;15.63;;;;;;;;;;4898573;29;20037;-79
2022/06/24 06:45:28;;;;;;;21.42;15.38;;;;;;;;;;4898104;29;20049;-79
2022/06/24 06:48:13;;;;;;;27.00;16.77;;;;;;;;;;4898656;29;20399;-79
2022/06/24 06:50:59;;;;;;;19.63;15.80;;;;;;;;;;4898690;29;20395;-79
2022/06/24 06:53:44;;;;;;;22.02;14.80;;;;;;;;;;4898080;29;20502;-79
2022/06/24 06:56:29;;;;;;;21.98;15.70;;;;;;;;;;4898120;29;20044;-80
2022/06/24 06:59:15;;;;;;;20.63;15.90;;;;;;;;;;4898859;29;20052;-77
2022/06/24 07:02:01;;;;;;;18.13;14.10;;;;;;;;;;4897969;29;20056;-79
2022/06/24 07:04:46;;;;;;;21.90;14.88;;;;;;;;;;4897578;29;20044;-78
2022/06/24 07:07:32;;;;;;;13.85;12.35;;;;;;;;;;4897364;29;20048;-78
2022/06/24 07:10:18;;;;;;;15.82;13.40;;;;;;;;;;4901125;29;20053;-79
2022/06/24 07:13:03;;;;;;;16.20;14.48;;;;;;;;;;4901180;29;20048;-79
2022/06/24 07:15:49;;;;;;;20.17;13.65;;;;;;;;;;4900774;29;20044;-79
2022/06/24 07:18:34;;;;;;;17.27;12.68;;;;;;;;;;4901419;29;20048;-79
2022/06/24 07:21:20;;;;;;;17.33;12.73;;;;;;;;;;4901202;29;20355;-78
2022/06/24 07:24:06;;;;;;;19.17;12.45;;;;;;;;;;4901073;29;20045;-78
2022/06/24 07:26:51;;;;;;;20.20;12.30;;;;;;;;;;4901066;29;20510;-79
2022/06/24 07:29:37;;;;;;;14.55;12.02;;;;;;;;;;4900712;29;20056;-79
2022/06/24 07:32:22;;;;;;;14.70;10.07;;;;;;;;;;4901074;29;20045;-79
2022/06/24 07:35:08;;;;;;;18.40;11.35;;;;;;;;;;4901892;29;20048;-78
2022/06/24 07:37:53;;;;;;;12.43;10.45;;;;;;;;;;4888060;29;20057;-81
2022/06/24 07:40:39;;;;;;;13.25;11.48;;;;;;;;;;4901497;29;20048;-79
2022/06/24 07:43:25;;;;;;;11.43;7.95;;;;;;;;;;4894751;29;20041;-79
2022/06/24 07:46:11;;;;;;;14.18;9.45;;;;;;;;;;4901121;29;20048;-79
2022/06/24 07:48:57;;;;;;;11.25;9.15;;;;;;;;;;4902666;29;20056;-78
2022/06/24 07:51:43;;;;;;;10.38;9.27;;;;;;;;;;4900654;29;20049;-79
2022/06/24 07:54:28;;;;;;;11.45;8.30;;;;;;;;;;4901194;29;20402;-79
2022/06/24 07:57:13;;;;;;;10.77;7.45;;;;;;;;;;4901418;29;20056;-79
2022/06/24 07:59:59;;;;;;;10.30;7.05;;;;;;;;;;4904794;29;20044;-78
2022/06/24 08:02:45;;;;;;;16.90;6.75;;;;;;;;;;4903744;29;20048;-77
2022/06/24 08:05:31;;;;;;;12.13;6.72;;;;;;;;;;4900260;29;20036;-80
2022/06/24 08:08:16;;;;;;;12.77;9.18;;;;;;;;;;4900425;29;20049;-80
2022/06/24 08:11:02;;;;;;;10.10;7.43;;;;;;;;;;4900078;29;20044;-74
2022/06/24 08:13:47;;;;;;;7.38;6.38;;;;;;;;;;4900574;29;20391;-77
2022/06/24 08:16:33;;;;;;;9.70;6.35;;;;;;;;;;4906828;29;20049;-80
2022/06/24 08:19:18;;;;;;;10.13;7.15;;;;;;;;;;4900195;29;20048;-78
2022/06/24 08:22:04;;;;;;;7.53;6.00;;;;;;;;;;4906186;29;20068;-77
2022/06/24 08:24:50;;;;;;;10.73;6.05;;;;;;;;;;4899900;29;20494;-78
2022/06/24 08:27:35;;;;;;;9.13;5.80;;;;;;;;;;4900014;29;20052;-79
2022/06/24 08:30:21;;;;;;;7.00;6.30;;;;;;;;;;4900177;29;20053;-80
2022/06/24 08:33:06;;;;;;;15.73;6.03;;;;;;;;;;4899992;29;20487;-77
2022/06/24 08:35:52;;;;;;;6.93;4.95;;;;;;;;;;4900085;29;20048;-77
2022/06/24 08:38:37;;;;;;;7.68;5.70;;;;;;;;;;4899575;29;20048;-78
2022/06/24 08:41:26;;;;;;;14.20;6.75;;;;;;;;;;4899845;29;20060;-79
2022/06/24 08:44:12;;;;;;;9.65;6.25;;;;;;;;;;4905726;29;20045;-78
2022/06/24 08:46:58;;;;;;;17.13;4.80;;;;;;;;;;4885565;29;20056;-76
2022/06/24 08:49:44;;;;;;;8.65;5.63;;;;;;;;;;4899737;29;20049;-79
2022/06/24 08:52:29;;;;;;;9.32;4.70;;;;;;;;;;4899354;29;20052;-80
2022/06/24 08:55:19;;;;;;;6.90;4.55;;;;;;;;;;4905496;29;20048;-79
2022/06/24 08:58:12;;;;;;;6.28;3.80;;;;;;;;;;4899814;29;20056;-79
2022/06/24 09:00:58;;;;;;;6.15;3.28;;;;;;;;;;4899305;29;20048;-78
2022/06/24 09:03:44;;;;;;;4.43;3.50;;;;;;;;;;4899057;29;20048;-78
2022/06/24 09:06:37;;;;;;;5.72;3.60;;;;;;;;;;4899184;29;20478;-77
2022/06/24 09:09:26;;;;;;;5.57;3.63;;;;;;;;;;4898901;29;20052;-78
2022/06/24 09:12:12;;;;;;;4.45;3.15;;;;;;;;;;4899498;29;20040;-78
2022/06/24 09:15:04;;;;;;;5.13;2.90;;;;;;;;;;4884628;29;20414;-78
2022/06/24 09:17:50;;;;;;;8.18;4.50;;;;;;;;;;4898968;29;20486;-78
2022/06/24 09:20:36;;;;;;;8.05;4.13;;;;;;;;;;4898701;29;20052;-78
2022/06/24 09:23:21;;;;;;;7.95;4.00;;;;;;;;;;4898481;29;20041;-78
2022/06/24 09:26:07;;;;;;;5.95;4.18;;;;;;;;;;4899135;29;20056;-78
2022/06/24 09:28:57;;;;;;;8.07;3.75;;;;;;;;;;4898227;29;20052;-78
2022/06/24 09:31:43;;;;;;;4.55;3.45;;;;;;;;;;4898618;29;20048;-78
2022/06/24 09:34:28;;;;;;;7.82;3.70;;;;;;;;;;4898554;29;20386;-78
2022/06/24 09:37:37;;;;;;;5.72;3.60;;;;;;;;;;4898515;29;20056;-79
2022/06/24 09:40:24;;;;;;;6.53;3.67;;;;;;;;;;4898565;29;20044;-78
2022/06/24 09:43:09;;;;;;;5.85;3.42;;;;;;;;;;4898228;29;20049;-78
2022/06/24 09:45:54;;;;;;;5.78;3.83;;;;;;;;;;4898796;29;20490;-78
2022/06/24 09:48:40;;;;;;;7.10;3.53;;;;;;;;;;4898809;29;20049;-76
2022/06/24 09:51:27;;;;;;;6.63;2.63;;;;;;;;;;4898926;29;20049;-79
2022/06/24 09:54:17;;;;;;;3.90;2.88;;;;;;;;;;4899483;29;20398;-79
2022/06/24 09:57:03;;;;;;;3.95;2.72;;;;;;;;;;4898579;29;20041;-80
2022/06/24 10:02:56;;;;;;;4.88;2.90;;;;;;;;;;4898133;29;20036;-78
2022/06/24 10:05:46;;;;;;;4.15;2.50;;;;;;;;;;4898273;29;20048;-79
2022/06/24 10:08:35;;;;;;;3.95;3.22;;;;;;;;;;4898600;29;20052;-78
2022/06/24 10:11:21;;;;;;;7.90;3.53;;;;;;;;;;4897926;29;20486;-77
2022/06/24 10:14:08;;;;;;;4.53;3.15;;;;;;;;;;4899054;29;20502;-79
2022/06/24 10:16:54;;;;;;;4.22;2.95;;;;;;;;;;4899097;29;20395;-79
2022/06/24 10:19:40;;;;;;;6.28;2.85;;;;;;;;;;4899222;29;20044;-79
2022/06/24 10:22:43;;;;;;;6.85;2.70;;;;;;;;;;4898324;29;20049;-77
2022/06/24 10:25:58;;;;;;;3.42;2.42;;;;;;;;;;4897686;29;20045;-79
2022/06/24 10:29:04;;;;;;;4.55;2.97;;;;;;;;;;4893224;29;20045;-77
2022/06/24 10:31:54;;;;;;;10.05;3.35;;;;;;;;;;4898170;29;20053;-79
2022/06/24 10:34:42;;;;;;;4.18;3.40;;;;;;;;;;4898559;29;20048;-77
2022/06/24 10:37:30;;;;;;;8.02;3.58;;;;;;;;;;4884386;29;20053;-82
2022/06/24 10:40:24;;;;;;;9.85;3.63;;;;;;;;;;4897776;29;20048;-81
2022/06/24 10:43:10;;;;;;;4.72;2.70;;;;;;;;;;4898355;29;20052;-79
2022/06/24 10:46:13;;;;;;;4.00;2.95;;;;;;;;;;4901615;29;20482;-82
2022/06/24 10:48:59;;;;;;;4.60;2.90;;;;;;;;;;4901922;29;20048;-80
2022/06/24 10:51:45;;;;;;;4.10;3.20;;;;;;;;;;4902127;29;20044;-82
2022/06/24 10:54:31;;;;;;;8.30;3.63;;;;;;;;;;4907814;29;20040;-79
2022/06/24 10:57:16;;;;;;;5.13;3.40;;;;;;;;;;4901697;29;20486;-79
2022/06/24 11:00:23;;;;;;;10.18;3.50;;;;;;;;;;4901296;29;20048;-78
2022/06/24 11:03:09;;;;;;;7.38;3.35;;;;;;;;;;4901200;29;20052;-78
2022/06/24 11:05:54;;;;;;;6.35;3.95;;;;;;;;;;4907647;29;20053;-81
2022/06/24 11:08:40;;;;;;;5.07;3.50;;;;;;;;;;4886991;29;20060;-77
2022/06/24 11:11:30;;;;;;;4.45;3.63;;;;;;;;;;4901323;29;20044;-78
2022/06/24 11:14:27;;;;;;;5.22;3.92;;;;;;;;;;4901032;29;20053;-79
2022/06/24 11:17:12;;;;;;;6.60;3.55;;;;;;;;;;4901279;29;20040;-79
2022/06/24 11:19:58;;;;;;;8.07;3.97;;;;;;;;;;4901253;29;20044;-82
2022/06/24 11:22:45;;;;;;;5.13;3.70;;;;;;;;;;4900669;29;20041;-81
2022/06/24 11:25:30;;;;;;;6.22;3.78;;;;;;;;;;4901430;29;20044;-81
2022/06/24 11:28:21;;;;;;;4.00;3.40;;;;;;;;;;4900876;29;20044;-80
2022/06/24 11:31:16;;;;;;;5.78;3.40;;;;;;;;;;4901107;29;20057;-79
2022/06/24 11:34:10;;;;;;;7.53;3.70;;;;;;;;;;4893693;29;20049;-80
2022/06/24 11:36:55;;;;;;;5.32;3.30;;;;;;;;;;4900796;29;20049;-79
2022/06/24 11:39:41;;;;;;;5.15;3.55;;;;;;;;;;4901142;29;20045;-79
2022/06/24 11:42:27;;;;;;;5.40;3.30;;;;;;;;;;4900782;29;20212;-79
2022/06/24 11:45:13;;;;;;;5.00;3.50;;;;;;;;;;4900865;29;20061;-78
2022/06/24 11:47:59;;;;;;;7.97;4.10;;;;;;;;;;4900550;29;20053;-80
2022/06/24 11:50:44;;;;;;;4.32;3.50;;;;;;;;;;4899730;29;20419;-79
2022/06/24 11:53:30;;;;;;;6.05;3.47;;;;;;;;;;4900297;29;20474;-80
2022/06/24 11:56:17;;;;;;;5.32;3.17;;;;;;;;;;4906432;29;20040;-80
2022/06/24 11:59:05;;;;;;;5.22;3.15;;;;;;;;;;4900483;29;20056;-79
2022/06/24 12:01:51;;;;;;;6.90;3.47;;;;;;;;;;4892447;29;20056;-79
2022/06/24 12:04:36;;;;;;;5.07;3.22;;;;;;;;;;4899359;29;20406;-80
2022/06/24 12:07:22;;;;;;;8.32;3.58;;;;;;;;;;4899986;29;20044;-81
2022/06/24 12:10:08;;;;;;;4.53;3.60;;;;;;;;;;4900547;29;20044;-80
2022/06/24 12:13:06;;;;;;;5.53;3.53;;;;;;;;;;4899476;29;20430;-79
2022/06/24 12:15:52;;;;;;;4.53;3.90;;;;;;;;;;4899757;29;20048;-81
2022/06/24 12:18:38;;;;;;;4.93;3.78;;;;;;;;;;4900069;29;20049;-81
2022/06/24 12:21:28;;;;;;;5.32;3.30;;;;;;;;;;4900277;29;20056;-81
2022/06/24 12:24:21;;;;;;;4.38;3.00;;;;;;;;;;4899593;29;20041;-81
2022/06/24 12:27:08;;;;;;;3.70;2.83;;;;;;;;;;4906275;29;20487;-79
2022/06/24 12:29:54;;;;;;;11.63;3.90;;;;;;;;;;4901627;29;20049;-82
2022/06/24 12:32:50;;;;;;;4.55;3.20;;;;;;;;;;4899760;29;20052;-79
2022/06/24 12:35:41;;;;;;;6.30;3.30;;;;;;;;;;4900417;29;20497;-80
2022/06/24 12:38:27;;;;;;;3.90;3.05;;;;;;;;;;4899735;29;20048;-80
2022/06/24 12:41:18;;;;;;;4.93;3.10;;;;;;;;;;4899620;29;20044;-79
2022/06/24 12:44:04;;;;;;;6.22;3.22;;;;;;;;;;4899759;29;20475;-80
2022/06/24 12:53:03;;;;;;;17.25;3.55;;;;;;;;;;4899992;29;20049;-78
2022/06/24 12:55:49;;;;;;;4.50;3.08;;;;;;;;;;4899445;29;20072;-78
2022/06/24 12:58:34;;;;;;;4.07;3.08;;;;;;;;;;4897992;29;20048;-78
2022/06/24 13:01:20;;;;;;;3.55;3.00;;;;;;;;;;4889676;29;20040;-78
2022/06/24 13:04:05;;;;;;;4.43;3.28;;;;;;;;;;4897837;29;20045;-77
2022/06/24 13:06:51;;;;;;;4.63;3.47;;;;;;;;;;4898758;29;20052;-78
2022/06/24 13:09:36;;;;;;;5.53;3.10;;;;;;;;;;4905329;29;20048;-77
2022/06/24 13:12:22;;;;;;;4.30;3.13;;;;;;;;;;4899166;29;20040;-77
2022/06/24 13:15:09;;;;;;;4.45;3.08;;;;;;;;;;4898998;29;20041;-77
2022/06/24 13:17:54;;;;;;;6.65;3.05;;;;;;;;;;4905314;29;20048;-76
2022/06/24 13:20:40;;;;;;;8.88;3.35;;;;;;;;;;4898303;29;20052;-79
2022/06/24 13:23:25;;;;;;;5.90;3.55;;;;;;;;;;4896822;29;20052;-76
2022/06/24 13:26:11;;;;;;;8.27;3.40;;;;;;;;;;4898922;29;20422;-77
2022/06/24 13:28:57;;;;;;;8.23;3.08;;;;;;;;;;4898652;29;20045;-76
2022/06/24 13:31:42;;;;;;;7.05;3.15;;;;;;;;;;4898901;29;20486;-78
2022/06/24 13:34:28;;;;;;;4.82;3.08;;;;;;;;;;4898945;29;20044;-77
2022/06/24 13:37:13;;;;;;;5.57;3.60;;;;;;;;;;4898592;29;20048;-80
2022/06/24 13:39:59;;;;;;;7.25;3.53;;;;;;;;;;4897928;29;20048;-80
2022/06/24 13:42:46;;;;;;;6.00;3.15;;;;;;;;;;4898164;29;20048;-79
2022/06/24 13:45:24;;;;;;;6.28;3.67;;;;;;;;;;4901320;23;20056;-79
2022/06/24 13:48:09;;;;;;;6.45;3.72;;;;;;;;;;4898474;29;20048;-79
2022/06/24 13:50:54;;;;;;;8.23;3.78;;;;;;;;;;4898402;29;20040;-77
2022/06/24 13:53:40;;;;;;;9.98;4.40;;;;;;;;;;4898517;29;20418;-80
2022/06/24 13:56:26;;;;;;;11.85;4.05;;;;;;;;;;4898284;29;20045;-80
2022/06/24 13:59:14;;;;;;;5.75;4.10;;;;;;;;;;4898045;29;20386;-79
2022/06/24 14:02:00;;;;;;;8.27;4.15;;;;;;;;;;4898399;29;20052;-78
2022/06/24 14:04:46;;;;;;;5.38;4.30;;;;;;;;;;4897966;29;20048;-78
2022/06/24 14:07:31;;;;;;;10.73;4.53;;;;;;;;;;4899345;29;20048;-79
2022/06/24 14:10:16;;;;;;;6.85;3.55;;;;;;;;;;4898332;29;20045;-79
2022/06/24 14:13:02;;;;;;;5.03;3.53;;;;;;;;;;4897592;29;20049;-79
2022/06/24 14:15:47;;;;;;;6.03;3.70;;;;;;;;;;4898063;29;20403;-77
2022/06/24 14:18:35;;;;;;;5.05;3.53;;;;;;;;;;4899388;29;20056;-77
2022/06/24 14:21:21;;;;;;;4.95;3.45;;;;;;;;;;4901402;29;20048;-77
2022/06/24 14:27:10;;;;;;;6.88;3.78;;;;;;;;;;4902077;29;20487;-77
2022/06/24 14:29:55;;;;;;;7.20;3.88;;;;;;;;;;4908233;29;20049;-76
2022/06/24 14:32:41;;;;;;;5.50;3.70;;;;;;;;;;4907927;29;20052;-77
2022/06/24 14:35:27;;;;;;;5.55;3.13;;;;;;;;;;4901445;29;20049;-78
2022/06/24 14:41:16;;;;;;;3.60;3.30;;;;;;;;;;4902154;29;20040;-78
2022/06/24 14:44:01;;;;;;;5.40;3.05;;;;;;;;;;4904918;29;20048;-77
2022/06/24 14:46:47;;;;;;;4.78;3.60;;;;;;;;;;4901584;29;20049;-77
2022/06/24 14:49:33;;;;;;;4.53;3.00;;;;;;;;;;4901610;29;20049;-77
2022/06/24 14:52:18;;;;;;;4.72;3.13;;;;;;;;;;4901688;29;20395;-77
2022/06/24 14:55:04;;;;;;;3.85;3.10;;;;;;;;;;4901399;29;20052;-76
2022/06/24 14:57:50;;;;;;;5.93;3.40;;;;;;;;;;4900870;29;20060;-77
2022/06/24 15:00:36;;;;;;;4.18;3.22;;;;;;;;;;4901709;29;20052;-75
2022/06/24 15:03:21;;;;;;;5.18;3.25;;;;;;;;;;4907489;29;20037;-76
2022/06/24 15:06:07;;;;;;;4.63;3.17;;;;;;;;;;4901742;29;20052;-76
2022/06/24 15:08:53;;;;;;;8.43;3.35;;;;;;;;;;4901530;29;20053;-76
2022/06/24 15:11:38;;;;;;;8.02;3.08;;;;;;;;;;4900056;29;20048;-78
2022/06/24 15:14:24;;;;;;;6.00;3.15;;;;;;;;;;4901254;29;20053;-82
2022/06/24 15:17:15;;;;;;;4.93;3.35;;;;;;;;;;4901092;29;20045;-81
2022/06/24 15:20:01;;;;;;;4.93;3.05;;;;;;;;;;4907195;29;20052;-78
2022/06/24 15:22:46;;;;;;;6.30;3.33;;;;;;;;;;4901395;29;20048;-79
2022/06/24 15:25:33;;;;;;;3.08;2.83;;;;;;;;;;4899040;29;20048;-78
2022/06/24 15:28:19;;;;;;;4.53;3.10;;;;;;;;;;4906806;29;20053;-80
2022/06/24 15:31:05;;;;;;;4.18;3.53;;;;;;;;;;4900602;29;20048;-78
2022/06/24 15:33:51;;;;;;;4.38;2.90;;;;;;;;;;4900402;29;20056;-80
2022/06/24 15:36:37;;;;;;;10.55;3.30;;;;;;;;;;4900527;29;20045;-79
2022/06/24 15:39:23;;;;;;;3.33;2.67;;;;;;;;;;4900207;29;20061;-80
2022/06/24 15:42:09;;;;;;;5.45;3.45;;;;;;;;;;4900781;29;20052;-79
2022/06/24 15:44:55;;;;;;;3.55;2.90;;;;;;;;;;4900479;29;20052;-79
2022/06/24 15:47:41;;;;;;;4.88;3.05;;;;;;;;;;4906180;29;20487;-81
2022/06/24 15:50:26;;;;;;;6.65;3.05;;;;;;;;;;4900660;29;20395;-80
2022/06/24 15:53:12;;;;;;;4.25;3.58;;;;;;;;;;4899900;29;20053;-81
2022/06/24 15:55:58;;;;;;;6.85;3.15;;;;;;;;;;4900483;29;20037;-80
2022/06/24 15:58:43;;;;;;;3.90;3.10;;;;;;;;;;4901194;29;20048;-80
2022/06/24 16:01:29;;;;;;;6.10;3.30;;;;;;;;;;4899776;29;20044;-81
2022/06/24 16:04:14;;;;;;;7.72;3.30;;;;;;;;;;4899985;29;20060;-80
2022/06/24 16:07:00;;;;;;;5.95;3.53;;;;;;;;;;4906365;29;20044;-81
2022/06/24 16:09:45;;;;;;;8.00;3.30;;;;;;;;;;4900117;29;20487;-80
2022/06/24 16:12:31;;;;;;;8.77;2.95;;;;;;;;;;4886730;29;20052;-79
2022/06/24 16:15:17;;;;;;;3.92;2.90;;;;;;;;;;4905933;29;20049;-80
2022/06/24 16:18:02;;;;;;;5.78;3.30;;;;;;;;;;4892789;29;20049;-82
2022/06/24 16:20:49;;;;;;;5.40;2.83;;;;;;;;;;4906665;29;20402;-79
2022/06/24 16:23:35;;;;;;;5.28;3.22;;;;;;;;;;4904480;29;20052;-77
2022/06/24 16:29:24;;;;;;;14.85;3.38;;;;;;;;;;4899136;29;20398;-78
2022/06/24 16:32:09;;;;;;;3.90;3.08;;;;;;;;;;4899997;29;20053;-79
2022/06/24 16:34:55;;;;;;;9.75;3.60;;;;;;;;;;4900308;29;20040;-80
2022/06/24 16:37:40;;;;;;;3.60;2.90;;;;;;;;;;4899254;29;20052;-79
2022/06/24 16:40:26;;;;;;;6.43;3.17;;;;;;;;;;4899587;29;20045;-79
2022/06/24 16:43:17;;;;;;;8.60;3.55;;;;;;;;;;4898941;29;20399;-79
2022/06/24 16:46:06;;;;;;;7.00;3.05;;;;;;;;;;4899726;29;20041;-79
2022/06/24 16:48:52;;;;;;;7.22;3.10;;;;;;;;;;4899664;29;20044;-79
2022/06/24 16:51:37;;;;;;;3.83;2.90;;;;;;;;;;4905271;29;20056;-79